createdAt,value
2022-10-18T00:02:20.423Z,18.55
2022-10-18T00:04:47.922Z,18.25
2022-10-18T00:07:15.135Z,18.17
2022-10-18T00:09:42.272Z,18.41
2022-10-18T00:12:09.403Z,18.46
2022-10-18T00:14:36.688Z,18.45
2022-10-18T00:17:04.130Z,18.30
2022-10-18T00:19:34.338Z,18.18
2022-10-18T00:22:01.468Z,18.24
2022-10-18T00:24:31.235Z,18.07
2022-10-18T00:26:58.347Z,18.37
2022-10-18T00:29:28.274Z,18.68
2022-10-18T00:31:55.377Z,18.78
2022-10-18T00:34:23.424Z,18.54
2022-10-18T00:36:56.571Z,18.89
2022-10-18T00:39:23.834Z,18.76
2022-10-18T00:41:52.056Z,18.75
2022-10-18T00:44:19.073Z,18.44
2022-10-18T00:46:50.203Z,18.24
2022-10-18T00:49:46.347Z,17.97
2022-10-18T00:52:32.189Z,18.00
2022-10-18T00:54:59.879Z,18.20
2022-10-18T00:57:27.841Z,18.29
2022-10-18T00:59:58.051Z,18.79
2022-10-18T01:02:26.559Z,18.83
2022-10-18T01:04:53.810Z,18.35
2022-10-18T01:07:39.180Z,18.54
2022-10-18T01:10:43.253Z,18.55
2022-10-18T01:14:00.802Z,18.10
2022-10-18T01:16:42.978Z,18.02
2022-10-18T01:19:57.270Z,18.23
2022-10-18T01:23:05.478Z,18.22
2022-10-18T01:25:58.239Z,17.99
2022-10-18T01:28:34.665Z,18.03
2022-10-18T01:31:25.739Z,17.63
2022-10-18T01:36:32.815Z,17.99
2022-10-18T01:39:13.748Z,18.14
2022-10-18T01:41:50.825Z,18.12
2022-10-18T01:44:39.343Z,18.07
2022-10-18T01:47:11.057Z,17.78
2022-10-18T01:49:45.694Z,17.70
2022-10-18T01:52:19.662Z,17.66
2022-10-18T01:54:49.373Z,17.76
2022-10-18T01:57:42.946Z,17.79
2022-10-18T02:00:24.952Z,17.65
2022-10-18T02:02:55.282Z,17.43
2022-10-18T02:06:07.115Z,17.09
2022-10-18T02:08:39.316Z,17.07
2022-10-18T02:11:12.455Z,17.13
2022-10-18T02:13:59.420Z,16.66
2022-10-18T02:16:44.530Z,17.08
2022-10-18T02:19:33.484Z,17.13
2022-10-18T02:22:02.123Z,17.01
2022-10-18T02:24:38.962Z,17.26
2022-10-18T02:27:06.914Z,17.30
2022-10-18T02:29:35.197Z,17.44
2022-10-18T02:32:28.134Z,17.38
2022-10-18T02:35:25.356Z,17.20
2022-10-18T02:37:55.083Z,17.10
2022-10-18T02:40:22.240Z,17.20
2022-10-18T02:42:51.530Z,16.99
2022-10-18T02:45:19.296Z,17.19
2022-10-18T02:47:46.694Z,17.18
2022-10-18T02:50:14.939Z,17.29
2022-10-18T02:52:42.004Z,17.43
2022-10-18T02:55:10.482Z,17.42
2022-10-18T02:57:41.829Z,16.81
2022-10-18T03:00:09.949Z,16.94
2022-10-18T03:02:37.519Z,16.77
2022-10-18T03:05:09.380Z,16.91
2022-10-18T03:07:36.676Z,16.88
2022-10-18T03:10:11.490Z,16.55
2022-10-18T03:12:38.562Z,16.85
2022-10-18T03:15:06.321Z,17.20
2022-10-18T03:17:34.646Z,17.37
2022-10-18T03:20:02.396Z,17.78
2022-10-18T03:22:30.816Z,17.10
2022-10-18T03:24:57.855Z,17.27
2022-10-18T03:27:27.109Z,17.08
2022-10-18T03:29:57.135Z,16.92
2022-10-18T03:32:24.253Z,17.58
2022-10-18T03:34:53.383Z,17.52
2022-10-18T03:37:21.690Z,17.17
2022-10-18T03:39:51.830Z,17.15
2022-10-18T03:42:20.106Z,17.80
2022-10-18T03:44:47.529Z,17.60
2022-10-18T03:47:17.912Z,17.51
2022-10-18T03:49:45.097Z,17.56
2022-10-18T03:52:12.107Z,17.83
2022-10-18T03:54:39.718Z,17.57
2022-10-18T03:57:06.807Z,17.37
2022-10-18T03:59:39.315Z,17.70
2022-10-18T04:02:06.769Z,17.71
2022-10-18T04:04:35.666Z,17.84
2022-10-18T04:07:03.244Z,18.21
2022-10-18T04:09:31.026Z,17.80
2022-10-18T04:12:00.939Z,17.21
2022-10-18T04:14:28.039Z,17.13
2022-10-18T04:16:55.116Z,17.36
2022-10-18T04:19:22.406Z,17.72
2022-10-18T04:21:49.492Z,17.67
2022-10-18T04:24:22.448Z,15.48
2022-10-18T04:26:49.598Z,16.66
2022-10-18T04:29:16.693Z,17.17
2022-10-18T04:31:53.610Z,17.30
2022-10-18T04:34:20.868Z,17.36
2022-10-18T04:36:49.107Z,16.23
2022-10-18T04:39:23.034Z,17.04
2022-10-18T04:41:53.162Z,17.16
2022-10-18T04:44:20.206Z,16.12
2022-10-18T04:46:47.319Z,15.74
2022-10-18T04:49:18.485Z,16.50
2022-10-18T04:51:45.618Z,16.91
2022-10-18T04:54:19.198Z,16.79
2022-10-18T04:56:46.301Z,16.57
2022-10-18T04:59:13.370Z,16.29
2022-10-18T05:01:41.060Z,14.89
2022-10-18T05:04:14.415Z,15.43
2022-10-18T05:06:44.747Z,16.08
2022-10-18T05:09:11.821Z,16.07
2022-10-18T05:11:39.148Z,16.23
2022-10-18T05:14:06.136Z,16.52
2022-10-18T05:16:33.283Z,15.52
2022-10-18T05:19:03.488Z,15.89
2022-10-18T05:21:30.577Z,16.22
2022-10-18T05:23:57.731Z,16.71
2022-10-18T05:26:25.804Z,16.48
2022-10-18T05:28:57.299Z,16.57
2022-10-18T05:31:24.644Z,16.81
2022-10-18T05:33:53.088Z,16.77
2022-10-18T05:36:20.274Z,16.91
2022-10-18T05:38:49.119Z,17.11
2022-10-18T05:41:22.805Z,17.04
2022-10-18T05:43:49.846Z,17.29
2022-10-18T05:46:16.959Z,17.38
2022-10-18T05:48:49.618Z,17.58
2022-10-18T05:51:17.175Z,17.42
2022-10-18T05:53:45.573Z,17.83
2022-10-18T05:56:14.550Z,17.29
2022-10-18T05:58:42.951Z,16.13
2022-10-18T06:01:11.034Z,16.81
2022-10-18T06:03:38.171Z,17.18
2022-10-18T06:06:11.977Z,16.75
2022-10-18T06:08:41.554Z,16.11
2022-10-18T06:11:15.444Z,16.89
2022-10-18T06:13:49.464Z,17.48
2022-10-18T06:16:22.841Z,17.78
2022-10-18T06:19:00.339Z,17.79
2022-10-18T06:21:27.963Z,16.15
2022-10-18T06:23:59.680Z,17.37
2022-10-18T06:26:33.334Z,17.42
2022-10-18T06:29:00.740Z,17.84
2022-10-18T06:31:28.037Z,17.94
2022-10-18T06:33:58.574Z,18.57
2022-10-18T06:36:26.256Z,18.67
2022-10-18T06:38:57.811Z,18.48
2022-10-18T06:41:28.999Z,18.83
2022-10-18T06:43:58.306Z,19.01
2022-10-18T06:46:26.926Z,19.69
2022-10-18T06:48:57.834Z,20.12
2022-10-18T06:51:24.959Z,20.34
2022-10-18T06:54:06.180Z,19.97
2022-10-18T06:56:42.187Z,20.21
2022-10-18T06:59:09.788Z,20.59
2022-10-18T07:01:39.915Z,20.80
2022-10-18T07:04:07.446Z,20.68
2022-10-18T07:06:34.644Z,20.68
2022-10-18T07:09:03.270Z,20.90
2022-10-18T07:11:30.477Z,20.38
2022-10-18T07:14:03.512Z,21.00
2022-10-18T07:16:33.066Z,20.58
2022-10-18T07:19:00.859Z,19.20
2022-10-18T07:21:28.711Z,18.91
2022-10-18T07:24:02.690Z,19.30
2022-10-18T07:26:35.535Z,20.41
2022-10-18T07:29:09.341Z,21.03
2022-10-18T07:31:38.592Z,20.79
2022-10-18T07:34:08.736Z,19.77
2022-10-18T07:36:41.853Z,19.32
2022-10-18T07:39:18.438Z,18.92
2022-10-18T07:41:47.826Z,18.81
2022-10-18T07:44:15.272Z,18.86
2022-10-18T07:46:42.680Z,19.02
2022-10-18T07:49:12.042Z,19.56
2022-10-18T07:51:39.141Z,19.40
2022-10-18T07:54:06.089Z,19.53
2022-10-18T07:56:33.160Z,19.79
2022-10-18T07:59:00.079Z,20.17
2022-10-18T08:01:27.619Z,19.41
2022-10-18T08:04:06.110Z,19.54
2022-10-18T08:06:34.272Z,20.32
2022-10-18T08:09:01.489Z,19.90
2022-10-18T08:11:32.172Z,20.17
2022-10-18T08:13:59.441Z,21.51
2022-10-18T08:16:29.378Z,22.39
2022-10-18T08:18:58.974Z,22.31
2022-10-18T08:21:27.285Z,20.65
2022-10-18T08:23:54.464Z,21.02
2022-10-18T08:26:24.614Z,20.87
2022-10-18T08:29:09.941Z,21.12
2022-10-18T08:31:40.241Z,22.70
2022-10-18T08:34:09.746Z,22.45
2022-10-18T08:36:37.865Z,23.32
2022-10-18T08:39:07.793Z,23.26
2022-10-18T08:42:00.204Z,22.95
2022-10-18T08:44:32.583Z,22.34
2022-10-18T08:47:15.103Z,22.96
2022-10-18T08:50:03.032Z,24.03
2022-10-18T08:53:04.329Z,22.84
2022-10-18T08:55:57.356Z,22.57
2022-10-18T08:58:30.875Z,22.45
2022-10-18T09:01:21.036Z,22.98
2022-10-18T09:04:40.424Z,23.51
2022-10-18T09:07:25.689Z,23.92
2022-10-18T09:10:15.987Z,24.04
2022-10-18T09:13:14.652Z,25.68
2022-10-18T09:16:17.937Z,25.55
2022-10-18T09:18:57.536Z,25.82
2022-10-18T09:22:04.999Z,25.81
2022-10-18T09:24:54.991Z,26.37
2022-10-18T09:27:37.723Z,26.23
2022-10-18T09:30:41.394Z,26.38
2022-10-18T09:33:52.602Z,25.76
2022-10-18T09:36:38.975Z,26.60
2022-10-18T09:39:15.277Z,27.32
2022-10-18T09:41:52.234Z,27.41
2022-10-18T09:44:28.035Z,28.13
2022-10-18T09:50:24.432Z,27.91
2022-10-18T09:53:20.366Z,27.05
2022-10-18T09:56:05.556Z,28.04
2022-10-18T09:58:47.114Z,28.96
2022-10-18T10:01:28.998Z,29.84
2022-10-18T10:03:57.516Z,29.65
2022-10-18T10:06:35.200Z,27.41
2022-10-18T10:09:39.464Z,28.43
2022-10-18T10:12:29.760Z,29.96
2022-10-18T10:15:17.704Z,29.55
2022-10-18T10:17:54.114Z,29.05
2022-10-18T10:20:34.569Z,31.01
2022-10-18T10:26:19.197Z,32.08
2022-10-18T10:28:49.143Z,31.98
2022-10-18T10:31:33.447Z,32.73
2022-10-18T10:34:15.716Z,30.46
2022-10-18T10:36:51.673Z,28.12
2022-10-18T10:39:23.252Z,29.51
2022-10-18T10:41:59.845Z,31.10
2022-10-18T10:44:32.852Z,34.24
2022-10-18T10:47:08.440Z,31.26
2022-10-18T10:49:40.191Z,31.36
2022-10-18T10:52:28.599Z,32.42
2022-10-18T10:55:22.964Z,32.60
2022-10-18T10:57:52.413Z,34.00
2022-10-18T11:00:43.800Z,30.35
2022-10-18T11:03:29.080Z,29.61
2022-10-18T11:06:02.081Z,27.88
2022-10-18T11:08:41.674Z,31.97
2022-10-18T11:11:28.856Z,35.55
2022-10-18T11:14:26.599Z,35.08
2022-10-18T11:17:42.500Z,30.97
2022-10-18T11:20:33.679Z,33.53
2022-10-18T11:23:07.321Z,37.48
2022-10-18T11:26:12.687Z,35.64
2022-10-18T11:29:18.066Z,38.60
